sensor_id;sensor_type;location;lat;lon;timestamp;temperature;humidity
51655;DHT22;37732;53.106;7.030;2022-10-16T00:01:24;12.10;99.90
51655;DHT22;37732;53.106;7.030;2022-10-16T00:03:50;12.10;99.90
51655;DHT22;37732;53.106;7.030;2022-10-16T00:06:19;12.10;99.90
51655;DHT22;37732;53.106;7.030;2022-10-16T00:08:45;12.40;99.90
51655;DHT22;37732;53.106;7.030;2022-10-16T00:11:16;12.00;99.90
51655;DHT22;37732;53.106;7.030;2022-10-16T00:13:43;12.00;99.90
51655;DHT22;37732;53.106;7.030;2022-10-16T00:16:10;12.00;99.90
51655;DHT22;37732;53.106;7.030;2022-10-16T00:18:37;11.90;99.90
51655;DHT22;37732;53.106;7.030;2022-10-16T00:21:08;11.90;99.90
51655;DHT22;37732;53.106;7.030;2022-10-16T00:23:35;11.90;99.90
51655;DHT22;37732;53.106;7.030;2022-10-16T00:26:07;12.10;99.90
51655;DHT22;37732;53.106;7.030;2022-10-16T00:28:33;12.00;99.90
51655;DHT22;37732;53.106;7.030;2022-10-16T00:31:02;11.90;99.90
51655;DHT22;37732;53.106;7.030;2022-10-16T00:33:27;11.90;99.90
51655;DHT22;37732;53.106;7.030;2022-10-16T00:35:53;11.90;99.90
51655;DHT22;37732;53.106;7.030;2022-10-16T00:38:18;12.00;99.90
51655;DHT22;37732;53.106;7.030;2022-10-16T00:40:44;11.90;99.90
51655;DHT22;37732;53.106;7.030;2022-10-16T00:46:29;12.00;99.90
51655;DHT22;37732;53.106;7.030;2022-10-16T00:49:04;12.00;99.90
51655;DHT22;37732;53.106;7.030;2022-10-16T00:51:35;12.00;99.90
51655;DHT22;37732;53.106;7.030;2022-10-16T00:54:02;11.90;99.90
51655;DHT22;37732;53.106;7.030;2022-10-16T00:56:29;11.90;99.90
51655;DHT22;37732;53.106;7.030;2022-10-16T00:58:55;11.90;99.90
51655;DHT22;37732;53.106;7.030;2022-10-16T01:01:20;11.90;99.90
51655;DHT22;37732;53.106;7.030;2022-10-16T01:03:46;11.90;99.90
51655;DHT22;37732;53.106;7.030;2022-10-16T01:09:16;11.90;99.90
51655;DHT22;37732;53.106;7.030;2022-10-16T01:11:55;11.90;99.90
51655;DHT22;37732;53.106;7.030;2022-10-16T01:17:08;11.90;99.90
51655;DHT22;37732;53.106;7.030;2022-10-16T01:22:20;11.80;99.90
51655;DHT22;37732;53.106;7.030;2022-10-16T01:24:49;11.80;99.90
51655;DHT22;37732;53.106;7.030;2022-10-16T01:27:27;11.80;99.90
51655;DHT22;37732;53.106;7.030;2022-10-16T01:32:33;11.90;99.90
51655;DHT22;37732;53.106;7.030;2022-10-16T01:40:18;12.20;99.90
51655;DHT22;37732;53.106;7.030;2022-10-16T01:42:55;12.00;99.90
51655;DHT22;37732;53.106;7.030;2022-10-16T01:45:22;12.40;99.90
51655;DHT22;37732;53.106;7.030;2022-10-16T01:47:49;12.10;99.90
51655;DHT22;37732;53.106;7.030;2022-10-16T01:50:18;12.10;99.90
51655;DHT22;37732;53.106;7.030;2022-10-16T01:52:47;12.10;99.90
51655;DHT22;37732;53.106;7.030;2022-10-16T01:55:19;12.10;99.90
51655;DHT22;37732;53.106;7.030;2022-10-16T01:57:48;12.10;99.90
51655;DHT22;37732;53.106;7.030;2022-10-16T02:00:17;12.10;99.90
51655;DHT22;37732;53.106;7.030;2022-10-16T02:02:47;12.20;99.90
51655;DHT22;37732;53.106;7.030;2022-10-16T02:07:49;12.20;99.90
51655;DHT22;37732;53.106;7.030;2022-10-16T02:10:15;12.20;99.90
51655;DHT22;37732;53.106;7.030;2022-10-16T02:12:45;12.20;99.90
51655;DHT22;37732;53.106;7.030;2022-10-16T02:15:11;12.20;99.90
51655;DHT22;37732;53.106;7.030;2022-10-16T02:17:37;12.30;99.90
51655;DHT22;37732;53.106;7.030;2022-10-16T02:20:03;12.30;99.90
51655;DHT22;37732;53.106;7.030;2022-10-16T02:22:36;12.30;99.90
51655;DHT22;37732;53.106;7.030;2022-10-16T02:30:40;12.40;99.90
51655;DHT22;37732;53.106;7.030;2022-10-16T02:33:09;12.40;99.90
51655;DHT22;37732;53.106;7.030;2022-10-16T02:35:36;12.40;99.90
51655;DHT22;37732;53.106;7.030;2022-10-16T02:38:03;12.40;99.90
51655;DHT22;37732;53.106;7.030;2022-10-16T02:40:29;12.40;99.90
51655;DHT22;37732;53.106;7.030;2022-10-16T02:42:55;12.40;99.90
51655;DHT22;37732;53.106;7.030;2022-10-16T02:45:22;12.40;99.90
51655;DHT22;37732;53.106;7.030;2022-10-16T02:47:48;12.40;99.90
51655;DHT22;37732;53.106;7.030;2022-10-16T02:50:14;12.50;99.90
51655;DHT22;37732;53.106;7.030;2022-10-16T02:52:40;12.50;99.90
51655;DHT22;37732;53.106;7.030;2022-10-16T02:55:06;12.60;99.90
51655;DHT22;37732;53.106;7.030;2022-10-16T02:57:32;12.50;99.90
51655;DHT22;37732;53.106;7.030;2022-10-16T02:59:58;12.50;99.90
51655;DHT22;37732;53.106;7.030;2022-10-16T03:02:24;12.50;99.90
51655;DHT22;37732;53.106;7.030;2022-10-16T03:04:49;12.60;99.90
51655;DHT22;37732;53.106;7.030;2022-10-16T03:07:15;12.60;99.90
51655;DHT22;37732;53.106;7.030;2022-10-16T03:09:41;12.60;99.90
51655;DHT22;37732;53.106;7.030;2022-10-16T03:12:07;12.60;99.90
51655;DHT22;37732;53.106;7.030;2022-10-16T03:14:33;12.60;99.90
51655;DHT22;37732;53.106;7.030;2022-10-16T03:16:59;12.60;99.90
51655;DHT22;37732;53.106;7.030;2022-10-16T03:19:24;12.60;99.90
51655;DHT22;37732;53.106;7.030;2022-10-16T03:21:50;12.70;99.90
51655;DHT22;37732;53.106;7.030;2022-10-16T03:24:15;12.70;99.90
51655;DHT22;37732;53.106;7.030;2022-10-16T03:26:41;12.70;99.90
51655;DHT22;37732;53.106;7.030;2022-10-16T03:29:07;12.60;99.90
51655;DHT22;37732;53.106;7.030;2022-10-16T03:31:33;12.60;99.90
51655;DHT22;37732;53.106;7.030;2022-10-16T03:33:59;12.70;99.90
51655;DHT22;37732;53.106;7.030;2022-10-16T03:36:24;12.60;99.90
51655;DHT22;37732;53.106;7.030;2022-10-16T03:38:50;12.70;99.90
51655;DHT22;37732;53.106;7.030;2022-10-16T03:41:16;12.60;99.90
51655;DHT22;37732;53.106;7.030;2022-10-16T03:43:41;12.60;99.90
51655;DHT22;37732;53.106;7.030;2022-10-16T03:46:07;12.60;99.90
51655;DHT22;37732;53.106;7.030;2022-10-16T03:48:33;12.70;99.90
51655;DHT22;37732;53.106;7.030;2022-10-16T03:50:58;12.70;99.90
51655;DHT22;37732;53.106;7.030;2022-10-16T03:53:24;12.70;99.90
51655;DHT22;37732;53.106;7.030;2022-10-16T03:55:50;12.70;99.90
51655;DHT22;37732;53.106;7.030;2022-10-16T03:58:16;12.60;99.90
51655;DHT22;37732;53.106;7.030;2022-10-16T04:00:45;12.60;99.90
51655;DHT22;37732;53.106;7.030;2022-10-16T04:03:12;12.60;99.90
51655;DHT22;37732;53.106;7.030;2022-10-16T04:05:38;12.70;99.90
51655;DHT22;37732;53.106;7.030;2022-10-16T04:08:04;12.70;99.90
51655;DHT22;37732;53.106;7.030;2022-10-16T04:10:29;12.40;99.90
51655;DHT22;37732;53.106;7.030;2022-10-16T04:12:55;12.60;99.90
51655;DHT22;37732;53.106;7.030;2022-10-16T04:15:24;12.60;99.90
51655;DHT22;37732;53.106;7.030;2022-10-16T04:17:50;12.60;99.90
51655;DHT22;37732;53.106;7.030;2022-10-16T04:20:15;12.60;99.90
51655;DHT22;37732;53.106;7.030;2022-10-16T04:22:41;12.60;99.90
51655;DHT22;37732;53.106;7.030;2022-10-16T04:25:07;12.50;99.90
51655;DHT22;37732;53.106;7.030;2022-10-16T04:27:33;12.50;99.90
51655;DHT22;37732;53.106;7.030;2022-10-16T04:30:00;12.50;99.90
51655;DHT22;37732;53.106;7.030;2022-10-16T04:32:26;12.50;99.90
51655;DHT22;37732;53.106;7.030;2022-10-16T04:34:52;12.40;99.90
51655;DHT22;37732;53.106;7.030;2022-10-16T04:37:18;12.40;99.90
51655;DHT22;37732;53.106;7.030;2022-10-16T04:39:44;12.40;99.90
51655;DHT22;37732;53.106;7.030;2022-10-16T04:42:10;12.50;99.90
51655;DHT22;37732;53.106;7.030;2022-10-16T04:44:36;12.30;99.90
51655;DHT22;37732;53.106;7.030;2022-10-16T04:47:02;12.40;99.90
51655;DHT22;37732;53.106;7.030;2022-10-16T04:49:28;12.40;99.90
51655;DHT22;37732;53.106;7.030;2022-10-16T04:51:53;12.40;99.90
51655;DHT22;37732;53.106;7.030;2022-10-16T04:54:19;12.40;99.90
51655;DHT22;37732;53.106;7.030;2022-10-16T04:56:45;12.40;99.90
51655;DHT22;37732;53.106;7.030;2022-10-16T04:59:16;12.50;99.90
51655;DHT22;37732;53.106;7.030;2022-10-16T05:01:42;12.50;99.90
51655;DHT22;37732;53.106;7.030;2022-10-16T05:04:07;12.50;99.90
51655;DHT22;37732;53.106;7.030;2022-10-16T05:06:37;12.50;99.90
51655;DHT22;37732;53.106;7.030;2022-10-16T05:09:07;12.60;99.90
51655;DHT22;37732;53.106;7.030;2022-10-16T05:11:33;12.50;99.90
51655;DHT22;37732;53.106;7.030;2022-10-16T05:13:59;12.50;99.90
51655;DHT22;37732;53.106;7.030;2022-10-16T05:16:25;12.50;99.90
51655;DHT22;37732;53.106;7.030;2022-10-16T05:18:53;12.50;99.90
51655;DHT22;37732;53.106;7.030;2022-10-16T05:21:20;12.50;99.90
51655;DHT22;37732;53.106;7.030;2022-10-16T05:23:45;12.50;99.90
51655;DHT22;37732;53.106;7.030;2022-10-16T05:26:11;12.50;99.90
51655;DHT22;37732;53.106;7.030;2022-10-16T05:28:37;12.50;99.90
51655;DHT22;37732;53.106;7.030;2022-10-16T05:31:06;12.50;99.90
51655;DHT22;37732;53.106;7.030;2022-10-16T05:33:32;12.50;99.90
51655;DHT22;37732;53.106;7.030;2022-10-16T05:36:02;12.50;99.90
51655;DHT22;37732;53.106;7.030;2022-10-16T05:38:28;12.50;99.90
51655;DHT22;37732;53.106;7.030;2022-10-16T05:40:54;12.50;99.90
51655;DHT22;37732;53.106;7.030;2022-10-16T05:43:20;12.40;99.90
51655;DHT22;37732;53.106;7.030;2022-10-16T05:45:56;12.50;99.90
51655;DHT22;37732;53.106;7.030;2022-10-16T05:48:23;12.50;99.90
51655;DHT22;37732;53.106;7.030;2022-10-16T05:51:05;12.40;99.90
51655;DHT22;37732;53.106;7.030;2022-10-16T05:53:34;12.50;99.90
51655;DHT22;37732;53.106;7.030;2022-10-16T05:56:01;12.50;99.90
51655;DHT22;37732;53.106;7.030;2022-10-16T05:58:31;12.60;99.90
51655;DHT22;37732;53.106;7.030;2022-10-16T06:01:10;12.50;99.90
51655;DHT22;37732;53.106;7.030;2022-10-16T06:03:36;12.50;99.90
51655;DHT22;37732;53.106;7.030;2022-10-16T06:06:15;12.50;99.90
51655;DHT22;37732;53.106;7.030;2022-10-16T06:08:43;12.50;99.90
51655;DHT22;37732;53.106;7.030;2022-10-16T06:11:11;12.60;99.90
51655;DHT22;37732;53.106;7.030;2022-10-16T06:13:37;12.60;99.90
51655;DHT22;37732;53.106;7.030;2022-10-16T06:16:04;12.60;99.90
51655;DHT22;37732;53.106;7.030;2022-10-16T06:18:30;12.60;99.90
51655;DHT22;37732;53.106;7.030;2022-10-16T06:20:56;12.60;99.90
51655;DHT22;37732;53.106;7.030;2022-10-16T06:23:23;12.60;99.90
51655;DHT22;37732;53.106;7.030;2022-10-16T06:25:48;12.60;99.90
51655;DHT22;37732;53.106;7.030;2022-10-16T06:28:15;12.60;99.90
51655;DHT22;37732;53.106;7.030;2022-10-16T06:30:41;12.70;99.90
51655;DHT22;37732;53.106;7.030;2022-10-16T06:33:12;12.70;99.90
51655;DHT22;37732;53.106;7.030;2022-10-16T06:35:38;12.70;99.90
51655;DHT22;37732;53.106;7.030;2022-10-16T06:38:04;12.70;99.90
51655;DHT22;37732;53.106;7.030;2022-10-16T06:40:29;12.70;99.90
51655;DHT22;37732;53.106;7.030;2022-10-16T06:42:55;12.70;99.90
51655;DHT22;37732;53.106;7.030;2022-10-16T06:45:21;12.70;99.90
51655;DHT22;37732;53.106;7.030;2022-10-16T06:47:46;12.70;99.90
51655;DHT22;37732;53.106;7.030;2022-10-16T06:50:12;12.80;99.90
51655;DHT22;37732;53.106;7.030;2022-10-16T06:52:38;12.80;99.90
51655;DHT22;37732;53.106;7.030;2022-10-16T06:55:04;12.60;99.90
51655;DHT22;37732;53.106;7.030;2022-10-16T06:57:29;12.70;99.90
51655;DHT22;37732;53.106;7.030;2022-10-16T06:59:55;12.70;99.90
51655;DHT22;37732;53.106;7.030;2022-10-16T07:02:21;12.70;99.90
51655;DHT22;37732;53.106;7.030;2022-10-16T07:04:47;12.70;99.90
51655;DHT22;37732;53.106;7.030;2022-10-16T07:07:13;12.80;99.90
51655;DHT22;37732;53.106;7.030;2022-10-16T07:09:38;12.80;99.90
51655;DHT22;37732;53.106;7.030;2022-10-16T07:12:05;12.80;99.90
51655;DHT22;37732;53.106;7.030;2022-10-16T07:14:31;12.90;99.90
51655;DHT22;37732;53.106;7.030;2022-10-16T07:16:56;12.90;99.90
51655;DHT22;37732;53.106;7.030;2022-10-16T07:19:22;13.00;99.90
51655;DHT22;37732;53.106;7.030;2022-10-16T07:21:47;13.10;99.90
51655;DHT22;37732;53.106;7.030;2022-10-16T07:24:15;13.10;99.90
51655;DHT22;37732;53.106;7.030;2022-10-16T07:26:43;13.40;99.90
51655;DHT22;37732;53.106;7.030;2022-10-16T07:29:17;13.10;99.90
51655;DHT22;37732;53.106;7.030;2022-10-16T07:31:44;13.10;99.90
51655;DHT22;37732;53.106;7.030;2022-10-16T07:34:11;13.20;99.90
51655;DHT22;37732;53.106;7.030;2022-10-16T07:36:37;13.10;99.90
51655;DHT22;37732;53.106;7.030;2022-10-16T07:39:03;13.20;99.90
51655;DHT22;37732;53.106;7.030;2022-10-16T07:41:29;13.30;99.90
51655;DHT22;37732;53.106;7.030;2022-10-16T07:43:55;13.30;99.90
51655;DHT22;37732;53.106;7.030;2022-10-16T07:46:23;13.40;99.90
51655;DHT22;37732;53.106;7.030;2022-10-16T07:48:49;13.50;99.90
51655;DHT22;37732;53.106;7.030;2022-10-16T07:51:18;13.50;99.90
51655;DHT22;37732;53.106;7.030;2022-10-16T07:53:44;13.50;99.90
51655;DHT22;37732;53.106;7.030;2022-10-16T07:56:10;13.50;99.90
51655;DHT22;37732;53.106;7.030;2022-10-16T07:58:37;13.60;99.90
51655;DHT22;37732;53.106;7.030;2022-10-16T08:01:08;13.50;99.90
51655;DHT22;37732;53.106;7.030;2022-10-16T08:03:34;13.60;99.90
51655;DHT22;37732;53.106;7.030;2022-10-16T08:06:00;13.60;99.90
51655;DHT22;37732;53.106;7.030;2022-10-16T08:08:27;13.70;99.90
51655;DHT22;37732;53.106;7.030;2022-10-16T08:10:52;13.70;99.90
51655;DHT22;37732;53.106;7.030;2022-10-16T08:13:18;13.80;99.90
51655;DHT22;37732;53.106;7.030;2022-10-16T08:15:45;13.80;99.90
51655;DHT22;37732;53.106;7.030;2022-10-16T08:18:12;13.90;99.90
51655;DHT22;37732;53.106;7.030;2022-10-16T08:20:38;13.40;99.90
51655;DHT22;37732;53.106;7.030;2022-10-16T08:23:04;13.90;99.90
51655;DHT22;37732;53.106;7.030;2022-10-16T08:25:30;13.90;99.90
51655;DHT22;37732;53.106;7.030;2022-10-16T08:27:56;14.00;99.90
51655;DHT22;37732;53.106;7.030;2022-10-16T08:30:23;14.10;99.90
51655;DHT22;37732;53.106;7.030;2022-10-16T08:32:49;14.30;99.90
51655;DHT22;37732;53.106;7.030;2022-10-16T08:35:15;14.10;99.90
51655;DHT22;37732;53.106;7.030;2022-10-16T08:37:41;14.10;99.90
51655;DHT22;37732;53.106;7.030;2022-10-16T08:40:28;14.10;99.90
51655;DHT22;37732;53.106;7.030;2022-10-16T08:48:49;14.20;99.90
51655;DHT22;37732;53.106;7.030;2022-10-16T08:51:30;14.20;99.90
51655;DHT22;37732;53.106;7.030;2022-10-16T08:53:59;14.10;99.90
51655;DHT22;37732;53.106;7.030;2022-10-16T08:56:27;14.00;99.90
51655;DHT22;37732;53.106;7.030;2022-10-16T08:58:53;14.10;99.90
51655;DHT22;37732;53.106;7.030;2022-10-16T09:01:21;14.20;99.90
51655;DHT22;37732;53.106;7.030;2022-10-16T09:06:56;14.40;99.90
51655;DHT22;37732;53.106;7.030;2022-10-16T09:10:02;14.60;99.90
51655;DHT22;37732;53.106;7.030;2022-10-16T09:18:15;14.70;99.90
51655;DHT22;37732;53.106;7.030;2022-10-16T09:21:04;14.60;99.90
51655;DHT22;37732;53.106;7.030;2022-10-16T09:23:34;14.60;99.90
51655;DHT22;37732;53.106;7.030;2022-10-16T09:26:00;14.60;99.90
51655;DHT22;37732;53.106;7.030;2022-10-16T09:28:26;14.80;99.90
51655;DHT22;37732;53.106;7.030;2022-10-16T09:30:52;14.90;99.90
51655;DHT22;37732;53.106;7.030;2022-10-16T09:33:21;15.00;99.90
51655;DHT22;37732;53.106;7.030;2022-10-16T09:35:50;15.10;99.90
51655;DHT22;37732;53.106;7.030;2022-10-16T09:38:30;15.20;99.90
51655;DHT22;37732;53.106;7.030;2022-10-16T09:40:59;15.20;99.90
51655;DHT22;37732;53.106;7.030;2022-10-16T09:43:30;15.40;99.90
51655;DHT22;37732;53.106;7.030;2022-10-16T09:46:04;15.60;99.90
51655;DHT22;37732;53.106;7.030;2022-10-16T09:48:43;15.70;99.90
51655;DHT22;37732;53.106;7.030;2022-10-16T09:51:22;15.90;99.90
51655;DHT22;37732;53.106;7.030;2022-10-16T09:53:48;16.10;99.90
51655;DHT22;37732;53.106;7.030;2022-10-16T09:56:31;16.10;99.90
51655;DHT22;37732;53.106;7.030;2022-10-16T09:59:15;16.00;99.90
51655;DHT22;37732;53.106;7.030;2022-10-16T10:01:46;16.00;99.90
51655;DHT22;37732;53.106;7.030;2022-10-16T10:04:12;16.10;99.90
51655;DHT22;37732;53.106;7.030;2022-10-16T10:06:45;16.00;99.90
51655;DHT22;37732;53.106;7.030;2022-10-16T10:09:23;16.10;99.90
51655;DHT22;37732;53.106;7.030;2022-10-16T10:11:54;16.20;99.90
51655;DHT22;37732;53.106;7.030;2022-10-16T10:14:35;16.40;99.90
51655;DHT22;37732;53.106;7.030;2022-10-16T10:19:36;16.40;99.90
51655;DHT22;37732;53.106;7.030;2022-10-16T10:22:58;16.30;99.90
51655;DHT22;37732;53.106;7.030;2022-10-16T10:27:39;16.10;99.90
51655;DHT22;37732;53.106;7.030;2022-10-16T10:33:19;16.20;99.90
51655;DHT22;37732;53.106;7.030;2022-10-16T10:38:29;16.30;99.90
51655;DHT22;37732;53.106;7.030;2022-10-16T10:46:21;16.70;99.90
51655;DHT22;37732;53.106;7.030;2022-10-16T10:49:02;16.70;99.90
51655;DHT22;37732;53.106;7.030;2022-10-16T10:54:25;16.70;99.90
51655;DHT22;37732;53.106;7.030;2022-10-16T10:57:07;16.60;99.90
51655;DHT22;37732;53.106;7.030;2022-10-16T11:10:52;17.00;99.90
51655;DHT22;37732;53.106;7.030;2022-10-16T11:13:42;17.20;99.90
51655;DHT22;37732;53.106;7.030;2022-10-16T11:16:28;17.30;99.90
51655;DHT22;37732;53.106;7.030;2022-10-16T11:18:59;17.40;99.90
51655;DHT22;37732;53.106;7.030;2022-10-16T11:21:29;17.50;99.90
51655;DHT22;37732;53.106;7.030;2022-10-16T11:24:04;17.40;99.90
51655;DHT22;37732;53.106;7.030;2022-10-16T11:26:36;17.50;99.90
51655;DHT22;37732;53.106;7.030;2022-10-16T11:29:10;17.40;99.90
51655;DHT22;37732;53.106;7.030;2022-10-16T11:31:41;17.30;99.90
51655;DHT22;37732;53.106;7.030;2022-10-16T11:34:25;17.30;99.90
51655;DHT22;37732;53.106;7.030;2022-10-16T11:36:58;17.40;99.90
51655;DHT22;37732;53.106;7.030;2022-10-16T11:39:29;17.50;99.90
51655;DHT22;37732;53.106;7.030;2022-10-16T11:42:05;17.60;99.90
51655;DHT22;37732;53.106;7.030;2022-10-16T11:50:28;17.70;99.90
51655;DHT22;37732;53.106;7.030;2022-10-16T11:55:51;17.50;99.90
51655;DHT22;37732;53.106;7.030;2022-10-16T12:08:20;17.60;99.90
51655;DHT22;37732;53.106;7.030;2022-10-16T12:10:47;17.60;99.90
51655;DHT22;37732;53.106;7.030;2022-10-16T12:13:35;17.60;99.90
51655;DHT22;37732;53.106;7.030;2022-10-16T12:16:19;17.70;99.90
51655;DHT22;37732;53.106;7.030;2022-10-16T12:18:46;17.80;99.90
51655;DHT22;37732;53.106;7.030;2022-10-16T12:21:13;17.80;99.90
51655;DHT22;37732;53.106;7.030;2022-10-16T12:23:52;17.80;99.90
51655;DHT22;37732;53.106;7.030;2022-10-16T12:26:44;18.00;99.90
51655;DHT22;37732;53.106;7.030;2022-10-16T12:29:17;18.10;99.90
51655;DHT22;37732;53.106;7.030;2022-10-16T12:31:47;18.10;99.90
51655;DHT22;37732;53.106;7.030;2022-10-16T12:39:36;18.10;99.90
51655;DHT22;37732;53.106;7.030;2022-10-16T12:44:51;18.10;99.90
51655;DHT22;37732;53.106;7.030;2022-10-16T12:47:22;18.10;99.90
51655;DHT22;37732;53.106;7.030;2022-10-16T12:49:54;18.00;99.90
51655;DHT22;37732;53.106;7.030;2022-10-16T12:55:00;18.00;99.90
51655;DHT22;37732;53.106;7.030;2022-10-16T12:57:55;17.80;99.90
51655;DHT22;37732;53.106;7.030;2022-10-16T13:00:25;17.80;99.90
51655;DHT22;37732;53.106;7.030;2022-10-16T13:11:48;18.00;99.90
51655;DHT22;37732;53.106;7.030;2022-10-16T13:27:41;17.90;99.90
51655;DHT22;37732;53.106;7.030;2022-10-16T13:30:17;17.90;99.90
51655;DHT22;37732;53.106;7.030;2022-10-16T13:33:31;18.00;99.90
51655;DHT22;37732;53.106;7.030;2022-10-16T13:35:52;18.10;99.90
51655;DHT22;37732;53.106;7.030;2022-10-16T13:38:20;18.10;99.90
51655;DHT22;37732;53.106;7.030;2022-10-16T13:41:05;18.10;99.90
51655;DHT22;37732;53.106;7.030;2022-10-16T13:43:51;18.20;99.90
51655;DHT22;37732;53.106;7.030;2022-10-16T13:46:20;18.20;99.90
51655;DHT22;37732;53.106;7.030;2022-10-16T13:49:14;18.20;99.90
51655;DHT22;37732;53.106;7.030;2022-10-16T13:51:40;18.10;99.90
51655;DHT22;37732;53.106;7.030;2022-10-16T13:54:07;18.10;99.90
51655;DHT22;37732;53.106;7.030;2022-10-16T13:56:34;18.10;99.90
51655;DHT22;37732;53.106;7.030;2022-10-16T13:59:05;18.10;99.90
51655;DHT22;37732;53.106;7.030;2022-10-16T14:01:42;18.10;99.90
51655;DHT22;37732;53.106;7.030;2022-10-16T14:04:11;18.10;99.90
51655;DHT22;37732;53.106;7.030;2022-10-16T14:06:43;18.00;99.90
51655;DHT22;37732;53.106;7.030;2022-10-16T14:09:25;18.00;99.90
51655;DHT22;37732;53.106;7.030;2022-10-16T14:12:00;17.90;99.90
51655;DHT22;37732;53.106;7.030;2022-10-16T14:14:51;17.80;99.90
51655;DHT22;37732;53.106;7.030;2022-10-16T14:17:25;17.80;99.90
51655;DHT22;37732;53.106;7.030;2022-10-16T14:19:54;17.80;99.90
51655;DHT22;37732;53.106;7.030;2022-10-16T14:22:33;17.70;99.90
51655;DHT22;37732;53.106;7.030;2022-10-16T14:25:00;17.70;99.90
51655;DHT22;37732;53.106;7.030;2022-10-16T14:27:34;17.60;99.90
51655;DHT22;37732;53.106;7.030;2022-10-16T14:30:18;17.60;99.90
51655;DHT22;37732;53.106;7.030;2022-10-16T14:33:00;17.60;99.90
51655;DHT22;37732;53.106;7.030;2022-10-16T14:35:31;17.50;99.90
51655;DHT22;37732;53.106;7.030;2022-10-16T14:37:59;17.40;99.90
51655;DHT22;37732;53.106;7.030;2022-10-16T14:40:29;17.30;99.90
51655;DHT22;37732;53.106;7.030;2022-10-16T14:42:55;17.20;99.90
51655;DHT22;37732;53.106;7.030;2022-10-16T14:45:27;17.10;99.90
51655;DHT22;37732;53.106;7.030;2022-10-16T14:48:06;17.00;99.90
51655;DHT22;37732;53.106;7.030;2022-10-16T14:50:40;17.00;99.90
51655;DHT22;37732;53.106;7.030;2022-10-16T14:53:11;16.90;99.90
51655;DHT22;37732;53.106;7.030;2022-10-16T14:55:38;16.80;99.90
51655;DHT22;37732;53.106;7.030;2022-10-16T14:58:04;16.80;99.90
51655;DHT22;37732;53.106;7.030;2022-10-16T15:00:30;16.70;99.90
51655;DHT22;37732;53.106;7.030;2022-10-16T15:02:55;16.60;99.90
51655;DHT22;37732;53.106;7.030;2022-10-16T15:05:24;16.60;99.90
51655;DHT22;37732;53.106;7.030;2022-10-16T15:07:52;16.50;99.90
51655;DHT22;37732;53.106;7.030;2022-10-16T15:10:20;16.50;99.90
51655;DHT22;37732;53.106;7.030;2022-10-16T15:12:47;16.40;99.90
51655;DHT22;37732;53.106;7.030;2022-10-16T15:15:33;16.40;99.90
51655;DHT22;37732;53.106;7.030;2022-10-16T15:17:59;16.40;99.90
51655;DHT22;37732;53.106;7.030;2022-10-16T15:20:28;16.30;99.90
51655;DHT22;37732;53.106;7.030;2022-10-16T15:22:55;16.20;99.90
51655;DHT22;37732;53.106;7.030;2022-10-16T15:25:37;16.20;99.90
51655;DHT22;37732;53.106;7.030;2022-10-16T15:28:05;16.20;99.90
51655;DHT22;37732;53.106;7.030;2022-10-16T15:30:32;16.10;99.90
51655;DHT22;37732;53.106;7.030;2022-10-16T15:32:58;16.00;99.90
51655;DHT22;37732;53.106;7.030;2022-10-16T15:35:24;16.00;99.90
51655;DHT22;37732;53.106;7.030;2022-10-16T15:37:50;16.00;99.90
51655;DHT22;37732;53.106;7.030;2022-10-16T15:40:17;15.90;99.90
51655;DHT22;37732;53.106;7.030;2022-10-16T15:42:43;15.90;99.90
51655;DHT22;37732;53.106;7.030;2022-10-16T15:45:10;15.80;99.90
51655;DHT22;37732;53.106;7.030;2022-10-16T15:47:36;15.80;99.90
51655;DHT22;37732;53.106;7.030;2022-10-16T15:50:03;15.70;99.90
51655;DHT22;37732;53.106;7.030;2022-10-16T15:52:29;15.70;99.90
51655;DHT22;37732;53.106;7.030;2022-10-16T15:54:57;15.60;99.90
51655;DHT22;37732;53.106;7.030;2022-10-16T15:57:23;15.60;99.90
51655;DHT22;37732;53.106;7.030;2022-10-16T15:59:49;15.50;99.90
51655;DHT22;37732;53.106;7.030;2022-10-16T16:02:15;15.50;99.90
51655;DHT22;37732;53.106;7.030;2022-10-16T16:04:41;15.40;99.90
51655;DHT22;37732;53.106;7.030;2022-10-16T16:07:07;15.40;99.90
51655;DHT22;37732;53.106;7.030;2022-10-16T16:09:33;15.30;99.90
51655;DHT22;37732;53.106;7.030;2022-10-16T16:11:59;15.30;99.90
51655;DHT22;37732;53.106;7.030;2022-10-16T16:14:26;15.30;99.90
51655;DHT22;37732;53.106;7.030;2022-10-16T16:16:54;15.30;99.90
51655;DHT22;37732;53.106;7.030;2022-10-16T16:19:19;15.20;99.90
51655;DHT22;37732;53.106;7.030;2022-10-16T16:21:50;15.20;99.90
51655;DHT22;37732;53.106;7.030;2022-10-16T16:24:16;15.10;99.90
51655;DHT22;37732;53.106;7.030;2022-10-16T16:26:42;15.10;99.90
51655;DHT22;37732;53.106;7.030;2022-10-16T16:29:13;15.00;99.90
51655;DHT22;37732;53.106;7.030;2022-10-16T16:31:39;15.00;99.90
51655;DHT22;37732;53.106;7.030;2022-10-16T16:34:05;14.80;99.90
51655;DHT22;37732;53.106;7.030;2022-10-16T16:36:32;14.80;99.90
51655;DHT22;37732;53.106;7.030;2022-10-16T16:38:58;14.70;99.90
51655;DHT22;37732;53.106;7.030;2022-10-16T16:41:26;14.60;99.90
51655;DHT22;37732;53.106;7.030;2022-10-16T16:43:53;14.50;99.90
51655;DHT22;37732;53.106;7.030;2022-10-16T16:46:19;14.50;99.90
51655;DHT22;37732;53.106;7.030;2022-10-16T16:48:46;14.40;99.90
51655;DHT22;37732;53.106;7.030;2022-10-16T16:51:13;14.40;99.90
51655;DHT22;37732;53.106;7.030;2022-10-16T16:53:42;14.30;99.90
51655;DHT22;37732;53.106;7.030;2022-10-16T16:56:08;14.20;99.90
51655;DHT22;37732;53.106;7.030;2022-10-16T16:58:34;14.20;99.90
51655;DHT22;37732;53.106;7.030;2022-10-16T17:01:00;14.10;99.90
51655;DHT22;37732;53.106;7.030;2022-10-16T17:03:36;14.10;99.90
51655;DHT22;37732;53.106;7.030;2022-10-16T17:06:07;14.00;99.90
51655;DHT22;37732;53.106;7.030;2022-10-16T17:08:36;13.90;99.90
51655;DHT22;37732;53.106;7.030;2022-10-16T17:11:03;13.80;99.90
51655;DHT22;37732;53.106;7.030;2022-10-16T17:13:32;13.80;99.90
51655;DHT22;37732;53.106;7.030;2022-10-16T17:16:04;13.70;99.90
51655;DHT22;37732;53.106;7.030;2022-10-16T17:18:31;13.70;99.90
51655;DHT22;37732;53.106;7.030;2022-10-16T17:21:04;13.80;99.90
51655;DHT22;37732;53.106;7.030;2022-10-16T17:23:30;13.60;99.90
51655;DHT22;37732;53.106;7.030;2022-10-16T17:25:56;13.60;99.90
51655;DHT22;37732;53.106;7.030;2022-10-16T17:28:21;13.40;99.90
51655;DHT22;37732;53.106;7.030;2022-10-16T17:30:47;13.40;99.90
51655;DHT22;37732;53.106;7.030;2022-10-16T17:33:13;13.30;99.90
51655;DHT22;37732;53.106;7.030;2022-10-16T17:35:44;13.30;99.90
51655;DHT22;37732;53.106;7.030;2022-10-16T17:38:12;13.30;99.90
51655;DHT22;37732;53.106;7.030;2022-10-16T17:40:38;13.20;99.90
51655;DHT22;37732;53.106;7.030;2022-10-16T17:43:04;13.20;99.90
51655;DHT22;37732;53.106;7.030;2022-10-16T17:45:30;13.10;99.90
51655;DHT22;37732;53.106;7.030;2022-10-16T17:47:58;13.00;99.90